Time;durP1;ratioP1;P1;durP2;ratioP2;P2;SDS_P1;SDS_P2;PMS_P1;PMS_P2;Temp;Humidity;BMP_temperature;BMP_pressure;BME280_temperature;BME280_humidity;BME280_pressure;Samples;Min_cycle;Max_cycle;Signal;HPM_P1;HPM_P2
2022/11/23 00:00:20;;;;;;;4.07;2.35;;;;;;;8.42;85.77;99467.53;4945806;28;20091;-79
2022/11/23 00:02:52;;;;;;;4.03;2.47;;;;;;;7.87;85.90;99368.81;4950868;28;20502;-78
2022/11/23 00:05:20;;;;;;;3.72;2.45;;;;;;;9.40;85.44;99625.44;4966071;28;20061;-80
2022/11/23 00:07:47;;;;;;;2.63;2.42;;;;;;;9.25;85.54;99607.56;4966163;28;20053;-80
2022/11/23 00:10:42;;;;;;;4.13;2.30;;;;;;;8.67;86.12;99526.81;4966140;28;20078;-79
2022/11/23 00:13:14;;;;;;;2.67;1.58;;;;;;;9.14;85.41;99583.00;4982257;28;20058;-80
2022/11/23 00:15:42;;;;;;;2.60;1.98;;;;;;;8.65;85.84;99505.78;4978973;28;20653;-79
2022/11/23 00:18:30;;;;;;;3.00;2.03;;;;;;;7.78;85.20;99375.00;4981164;28;20054;-78
2022/11/23 00:20:59;;;;;;;3.92;2.05;;;;;;;9.31;85.77;99644.06;4965143;28;20066;-77
2022/11/23 00:23:26;;;;;;;3.65;2.05;;;;;;;9.23;86.51;99630.75;4964881;28;20073;-81
2022/11/23 00:25:53;;;;;;;4.28;2.35;;;;;;;8.96;86.54;99598.06;4964831;28;20140;-78
2022/11/23 00:28:19;;;;;;;2.50;2.10;;;;;;;9.23;86.79;99649.28;4965977;28;20217;-78
2022/11/23 00:30:51;;;;;;;2.95;1.83;;;;;;;9.09;85.90;99624.16;4982221;28;20463;-78
2022/11/23 00:33:19;;;;;;;2.35;1.95;;;;;;;9.17;86.34;99648.91;5002415;28;20627;-79
2022/11/23 00:35:46;;;;;;;3.15;1.80;;;;;;;8.96;86.67;99612.13;4987835;28;20549;-77
2022/11/23 00:38:13;;;;;;;2.83;2.20;;;;;;;9.18;86.62;99655.88;5006208;28;20046;-79
2022/11/23 00:40:40;;;;;;;3.53;1.75;;;;;;;9.87;87.96;99645.50;5005772;28;20050;-78
2022/11/23 00:43:07;;;;;;;4.72;2.13;;;;;;;10.09;84.83;99648.63;5006221;28;20139;-79
2022/11/23 00:45:34;;;;;;;3.97;2.00;;;;;;;9.91;83.94;99638.09;5004389;28;20049;-77
2022/11/23 00:48:01;;;;;;;3.22;1.80;;;;;;;9.84;83.92;99661.72;5005404;28;20630;-76
2022/11/23 00:50:29;;;;;;;2.55;2.25;;;;;;;9.58;84.35;99646.59;5005346;28;20061;-77
2022/11/23 00:53:10;;;;;;;2.65;1.75;;;;;;;9.43;85.17;99642.84;5005208;28;20119;-77
2022/11/23 00:55:40;;;;;;;2.95;2.00;;;;;;;9.44;85.63;99663.03;5007073;28;20061;-77
2022/11/23 00:58:07;;;;;;;4.82;1.90;;;;;;;9.35;85.71;99662.16;5000257;28;20682;-78
2022/11/23 01:00:34;;;;;;;5.13;2.42;;;;;;;8.93;86.23;99604.50;4984524;28;20648;-78
2022/11/23 01:03:01;;;;;;;2.42;1.95;;;;;;;9.38;87.15;99671.63;4963470;28;20553;-78
2022/11/23 01:05:35;;;;;;;2.15;1.90;;;;;;;9.39;86.69;99665.31;4981241;28;20059;-77
2022/11/23 01:08:04;;;;;;;3.03;1.92;;;;;;;9.37;87.63;99664.66;4964736;28;20061;-78
2022/11/23 01:10:31;;;;;;;2.97;2.25;;;;;;;9.40;87.03;99673.13;4965469;28;20066;-78
2022/11/23 01:13:00;;;;;;;2.83;1.90;;;;;;;9.35;87.02;99667.44;4965864;28;20506;-75
2022/11/23 01:15:51;;;;;;;2.80;2.03;;;;;;;9.28;87.97;99668.22;4937214;28;20289;-77
2022/11/23 01:18:22;;;;;;;2.85;1.63;;;;;;;9.36;88.08;99668.28;4965834;28;20355;-77
2022/11/23 01:20:50;;;;;;;2.83;2.30;;;;;;;9.56;87.38;99679.53;4976389;28;20118;-77
2022/11/23 01:23:18;;;;;;;2.80;2.35;;;;;;;9.51;86.70;99674.69;4978451;28;20069;-78
2022/11/23 01:25:46;;;;;;;2.13;1.80;;;;;;;8.66;86.59;99555.06;4982129;28;20054;-78
2022/11/23 01:28:16;;;;;;;3.75;2.10;;;;;;;8.30;86.56;99501.25;4977395;28;20145;-78
2022/11/23 01:30:43;;;;;;;6.28;2.30;;;;;;;9.47;86.51;99691.06;4957086;28;20166;-77
2022/11/23 01:33:10;;;;;;;2.88;2.35;;;;;;;9.29;86.52;99673.34;4983702;28;20549;-77
2022/11/23 01:35:37;;;;;;;2.50;2.20;;;;;;;8.01;86.85;99482.91;4986841;28;20065;-78
2022/11/23 01:38:05;;;;;;;4.40;2.40;;;;;;;9.39;87.60;99705.06;4969406;28;20058;-76
2022/11/23 01:40:41;;;;;;;2.97;2.33;;;;;;;9.51;87.81;99698.53;4984572;28;20050;-76
2022/11/23 01:43:17;;;;;;;5.05;2.65;;;;;;;9.41;87.46;99650.09;4985126;28;20468;-76
2022/11/23 01:45:54;;;;;;;2.78;2.00;;;;;;;9.49;87.33;99662.59;4987026;28;20049;-75
2022/11/23 01:48:39;;;;;;;3.90;2.45;;;;;;;10.08;86.60;99689.41;4985734;28;20632;-76
2022/11/23 01:51:13;;;;;;;5.05;1.75;;;;;;;10.38;85.97;99669.53;4985723;28;20528;-77
2022/11/23 01:53:42;;;;;;;3.20;2.30;;;;;;;10.73;84.40;99695.09;4985073;28;20177;-77
2022/11/23 01:56:16;;;;;;;2.97;1.67;;;;;;;10.94;83.12;99701.81;4987030;28;20533;-77
2022/11/23 01:58:49;;;;;;;2.50;1.80;;;;;;;11.61;81.18;99699.97;4971445;28;20138;-76
2022/11/23 02:01:23;;;;;;;3.28;1.88;;;;;;;12.50;77.29;99700.91;4944876;28;21048;-76
2022/11/23 02:03:53;;;;;;;2.65;1.83;;;;;;;12.75;75.09;99683.00;4960720;28;20062;-76
2022/11/23 02:06:22;;;;;;;3.75;2.03;;;;;;;13.00;73.11;99713.00;4961263;28;20054;-76
2022/11/23 02:08:52;;;;;;;2.25;1.90;;;;;;;13.01;72.90;99684.53;4946414;28;20046;-77
2022/11/23 02:11:31;;;;;;;3.13;1.63;;;;;;;13.10;73.07;99696.00;4945469;28;20046;-75
2022/11/23 02:13:59;;;;;;;2.78;1.83;;;;;;;13.18;72.38;99701.25;4946952;28;20132;-77
2022/11/23 02:16:32;;;;;;;3.55;1.88;;;;;;;12.76;72.29;99721.94;4960814;28;20067;-76
2022/11/23 02:18:59;;;;;;;3.63;2.38;;;;;;;12.42;73.84;99724.88;4948221;28;20149;-77
2022/11/23 02:21:35;;;;;;;3.50;2.53;;;;;;;10.48;73.86;99480.06;4961634;28;20051;-77
2022/11/23 02:24:29;;;;;;;3.50;2.65;;;;;;;11.56;75.31;99723.56;4961394;28;20593;-76
2022/11/23 02:27:06;;;;;;;5.60;3.30;;;;;;;11.09;76.45;99732.06;4945419;28;20445;-76
2022/11/23 02:29:34;;;;;;;4.00;3.22;;;;;;;10.68;77.81;99739.88;4960676;28;20054;-76
2022/11/23 02:32:06;;;;;;;3.70;2.42;;;;;;;10.41;78.22;99744.38;4970791;28;20055;-77
2022/11/23 02:34:37;;;;;;;4.22;2.60;;;;;;;10.13;80.95;99734.84;4984370;28;20191;-76
2022/11/23 02:37:05;;;;;;;3.63;2.70;;;;;;;10.19;81.08;99744.81;4984621;28;20045;-75
2022/11/23 02:39:39;;;;;;;3.35;2.75;;;;;;;10.01;81.12;99748.34;4984241;28;20094;-75
2022/11/23 02:42:06;;;;;;;4.35;2.53;;;;;;;9.95;81.69;99753.44;4982200;28;20454;-76
2022/11/23 02:45:05;;;;;;;5.00;2.60;;;;;;;9.77;82.91;99758.75;4986747;28;20166;-79
2022/11/23 02:47:34;;;;;;;5.20;2.77;;;;;;;9.45;83.61;99725.66;4987384;28;20084;-77
2022/11/23 02:50:04;;;;;;;3.35;2.63;;;;;;;9.58;83.70;99757.06;4971354;28;20308;-77
2022/11/23 02:52:31;;;;;;;4.15;3.05;;;;;;;9.51;84.15;99762.13;4987922;28;20136;-76
2022/11/23 02:55:05;;;;;;;4.00;2.75;;;;;;;9.44;84.79;99754.94;4987705;28;20568;-78
2022/11/23 02:57:45;;;;;;;4.57;2.58;;;;;;;9.47;84.85;99762.59;4984549;28;20108;-77
2022/11/23 03:00:13;;;;;;;4.15;2.72;;;;;;;9.39;84.97;99747.44;4963425;28;20046;-77
2022/11/23 03:02:50;;;;;;;5.20;2.25;;;;;;;9.58;86.40;99683.69;4969851;28;20453;-77
2022/11/23 03:05:28;;;;;;;3.92;2.90;;;;;;;10.38;83.70;99749.97;4983940;28;20131;-75
2022/11/23 03:07:59;;;;;;;4.63;3.03;;;;;;;10.45;82.48;99752.84;4987422;28;20049;-78
2022/11/23 03:10:42;;;;;;;4.22;2.40;;;;;;;10.34;81.91;99759.25;4985211;28;20541;-76
2022/11/23 03:13:09;;;;;;;5.30;2.50;;;;;;;10.15;82.03;99759.41;4986162;28;20595;-76
2022/11/23 03:15:46;;;;;;;3.80;2.55;;;;;;;9.99;82.53;99765.41;5002635;28;20134;-78
2022/11/23 03:18:26;;;;;;;2.42;2.22;;;;;;;9.82;82.57;99759.13;4987219;28;20053;-77
2022/11/23 03:21:08;;;;;;;3.17;2.08;;;;;;;9.69;83.26;99764.81;4987254;28;20049;-76
2022/11/23 03:23:39;;;;;;;2.95;2.40;;;;;;;9.57;84.17;99774.78;5005227;28;20144;-76
2022/11/23 03:26:13;;;;;;;3.08;2.53;;;;;;;9.52;84.06;99770.94;4985471;28;20088;-78
2022/11/23 03:28:50;;;;;;;5.47;2.60;;;;;;;9.45;84.92;99770.69;4983359;28;20557;-76
2022/11/23 03:31:30;;;;;;;4.35;2.55;;;;;;;9.44;84.97;99771.66;4985798;28;20519;-77
2022/11/23 03:34:10;;;;;;;3.78;2.42;;;;;;;9.43;84.69;99777.94;5004954;28;20059;-76
2022/11/23 03:36:46;;;;;;;4.35;2.15;;;;;;;9.39;84.47;99776.56;4988972;28;20559;-77
2022/11/23 03:39:20;;;;;;;3.83;2.08;;;;;;;9.33;84.76;99777.19;5013891;28;20053;-77
2022/11/23 03:41:55;;;;;;;2.45;1.80;;;;;;;9.26;85.02;99779.59;4987730;28;20283;-78
2022/11/23 03:44:33;;;;;;;3.42;2.47;;;;;;;9.11;85.16;99768.66;5003633;28;20053;-76
2022/11/23 03:47:02;;;;;;;2.70;2.20;;;;;;;9.17;84.98;99786.63;5003032;28;20052;-77
2022/11/23 03:49:35;;;;;;;1.95;1.65;;;;;;;9.25;85.44;99771.78;4988448;28;20060;-77
2022/11/23 03:52:13;;;;;;;2.95;1.73;;;;;;;9.22;85.70;99750.91;4988850;28;20059;-77
2022/11/23 03:54:45;;;;;;;;;;;;;;;9.36;84.70;99771.59;4989754;28;20275;-76
2022/11/23 03:57:29;;;;;;;2.83;2.05;;;;;;;8.62;84.80;99659.56;4987425;28;19925;-77
2022/11/23 04:00:06;;;;;;;1.85;1.58;;;;;;;8.72;84.84;99685.97;4988185;28;20057;-76
2022/11/23 04:02:37;;;;;;;3.55;1.85;;;;;;;9.32;85.70;99772.84;4981980;28;20512;-76
2022/11/23 04:05:14;;;;;;;4.15;2.00;;;;;;;9.31;85.56;99772.03;4951040;28;20442;-76
2022/11/23 04:07:59;;;;;;;3.65;1.83;;;;;;;9.14;85.82;99763.06;4962178;28;20145;-77
2022/11/23 04:10:36;;;;;;;4.05;1.92;;;;;;;9.09;85.29;99762.66;4962435;28;20078;-77
2022/11/23 04:13:19;;;;;;;2.40;1.85;;;;;;;9.13;85.16;99787.88;4945806;28;20047;-77
2022/11/23 04:16:06;;;;;;;3.58;1.88;;;;;;;8.53;84.61;99708.88;4946337;28;20050;-79
2022/11/23 04:19:09;;;;;;;2.92;1.63;;;;;;;8.98;85.30;99798.13;4959563;28;20709;-76
2022/11/23 04:21:50;;;;;;;3.15;1.90;;;;;;;9.17;85.91;99797.22;4961832;28;20062;-78
2022/11/23 04:24:22;;;;;;;4.20;1.63;;;;;;;9.30;85.76;99780.13;4963072;28;20152;-77
2022/11/23 04:27:11;;;;;;;1.70;1.55;;;;;;;9.41;85.52;99788.69;4975721;28;20212;-75
2022/11/23 04:29:52;;;;;;;3.25;2.25;;;;;;;9.33;84.09;99775.38;4960470;28;20558;-78
2022/11/23 04:32:45;;;;;;;3.47;2.45;;;;;;;9.31;82.96;99792.38;4974518;28;20049;-77
2022/11/23 04:35:29;;;;;;;1.70;1.42;;;;;;;9.15;82.74;99804.47;4982711;28;20216;-77
2022/11/23 04:37:59;;;;;;;1.75;1.40;;;;;;;8.27;83.23;99671.63;4981008;28;20062;-76
2022/11/23 04:40:48;;;;;;;2.97;1.85;;;;;;;9.42;84.79;99802.78;4942190;28;20054;-76
2022/11/23 04:43:35;;;;;;;3.60;1.70;;;;;;;9.74;84.19;99801.47;4943366;28;20814;-78
2022/11/23 04:46:05;;;;;;;1.65;1.42;;;;;;;9.62;81.94;99812.28;4940865;28;20553;-79
2022/11/23 04:49:02;;;;;;;2.53;1.70;;;;;;;9.39;81.31;99817.16;4941630;28;20051;-77
2022/11/23 04:51:46;;;;;;;1.42;1.33;;;;;;;7.52;81.74;99553.59;4942158;28;20055;-78
2022/11/23 04:54:18;;;;;;;1.50;1.15;;;;;;;8.95;81.81;99811.63;4939989;28;20050;-76
2022/11/23 04:56:55;;;;;;;1.90;1.25;;;;;;;7.48;83.73;99553.91;4940506;28;20059;-77
2022/11/23 04:59:36;;;;;;;1.77;1.45;;;;;;;9.09;83.42;99815.63;4958292;28;20209;-78
2022/11/23 05:02:24;;;;;;;5.15;1.77;;;;;;;9.05;83.12;99806.28;4959782;28;20216;-77
2022/11/23 05:05:05;;;;;;;1.90;1.52;;;;;;;9.02;83.76;99803.94;4991717;28;20501;-79
2022/11/23 05:08:02;;;;;;;2.65;2.05;;;;;;;8.99;84.23;99799.78;4986775;28;20053;-78
2022/11/23 05:10:59;;;;;;;2.00;1.80;;;;;;;8.95;83.21;99803.69;5000205;28;20049;-79
2022/11/23 05:13:38;;;;;;;2.78;1.73;;;;;;;8.89;83.66;99814.88;4983862;28;20484;-77
2022/11/23 05:16:17;;;;;;;2.30;1.70;;;;;;;9.07;83.84;99820.22;4984176;28;20072;-77
2022/11/23 05:19:22;;;;;;;2.05;1.80;;;;;;;9.14;82.74;99823.97;4983232;28;20054;-77
2022/11/23 05:21:53;;;;;;;3.88;1.90;;;;;;;8.02;81.17;99677.56;4984186;28;20061;-77
2022/11/23 05:27:37;;;;;;;2.03;1.80;;;;;;;8.54;81.97;99831.38;5000111;28;20433;-77
2022/11/23 05:30:13;;;;;;;2.00;1.80;;;;;;;8.45;82.15;99832.25;4999229;28;20756;-77
2022/11/23 05:32:45;;;;;;;2.67;1.98;;;;;;;8.26;83.24;99811.94;4995494;28;20048;-77
2022/11/23 05:35:34;;;;;;;5.30;2.55;;;;;;;8.04;83.28;99778.69;5005350;28;20076;-77
2022/11/23 05:38:10;;;;;;;5.65;2.42;;;;;;;8.40;83.47;99827.41;5003696;28;20102;-78
2022/11/23 05:41:06;;;;;;;4.15;2.80;;;;;;;8.29;82.96;99836.25;4965276;28;20621;-77
2022/11/23 05:43:47;;;;;;;6.30;3.08;;;;;;;8.21;83.14;99835.31;4962938;28;20827;-77
2022/11/23 05:46:44;;;;;;;3.78;3.22;;;;;;;7.41;83.55;99723.63;4960420;28;20077;-78
2022/11/23 05:49:19;;;;;;;4.25;3.10;;;;;;;8.07;83.66;99839.19;4938307;28;20057;-78
2022/11/23 05:52:17;;;;;;;5.47;2.72;;;;;;;7.97;83.80;99838.38;4978701;28;20086;-78
2022/11/23 05:54:58;;;;;;;4.85;3.78;;;;;;;7.92;83.64;99836.97;4959043;28;20720;-77
2022/11/23 05:57:32;;;;;;;6.70;3.75;;;;;;;7.95;83.98;99840.31;4965972;28;20144;-77
2022/11/23 06:00:10;;;;;;;4.85;3.65;;;;;;;7.98;84.92;99845.31;4986652;28;20074;-78
2022/11/23 06:02:41;;;;;;;5.60;3.57;;;;;;;7.96;84.06;99837.53;4985745;28;20620;-78
2022/11/23 06:05:13;;;;;;;9.18;6.82;;;;;;;7.23;84.28;99729.56;4964097;28;20140;-77
2022/11/23 06:08:03;;;;;;;9.50;7.00;;;;;;;7.82;84.55;99835.31;4944245;28;20054;-76
2022/11/23 06:10:43;;;;;;;6.63;4.68;;;;;;;7.67;84.38;99816.34;4940992;28;20046;-77
2022/11/23 06:13:27;;;;;;;10.50;5.82;;;;;;;7.68;84.61;99818.84;4960258;28;20336;-75
2022/11/23 06:16:06;;;;;;;9.50;6.07;;;;;;;7.85;84.11;99842.94;4940882;28;20490;-76
2022/11/23 06:18:46;;;;;;;8.57;5.97;;;;;;;7.83;84.57;99853.63;4958031;28;20077;-77
2022/11/23 06:21:45;;;;;;;9.98;5.63;;;;;;;7.86;84.38;99858.69;4953559;28;20117;-77
2022/11/23 06:24:24;;;;;;;8.55;5.80;;;;;;;7.92;85.17;99852.81;4955697;28;20061;-77
2022/11/23 06:26:51;;;;;;;7.38;6.05;;;;;;;7.82;85.34;99836.13;4847506;28;20473;-77
2022/11/23 06:29:22;;;;;;;8.60;6.20;;;;;;;7.90;85.30;99849.47;4860708;28;20303;-77
2022/11/23 06:32:16;;;;;;;7.82;6.32;;;;;;;7.47;84.88;99787.25;4898365;29;20764;-77
2022/11/23 06:34:44;;;;;;;6.75;5.75;;;;;;;7.86;85.37;99848.09;4882550;29;20456;-76
2022/11/23 06:37:15;;;;;;;10.70;6.60;;;;;;;8.07;86.17;99873.56;4921295;28;20059;-77
2022/11/23 06:40:01;;;;;;;9.32;5.75;;;;;;;8.07;84.95;99857.72;4919038;29;20119;-77
2022/11/23 06:42:30;;;;;;;9.50;7.22;;;;;;;8.10;84.21;99873.28;4861423;28;20161;-76
2022/11/23 06:45:08;;;;;;;9.82;6.57;;;;;;;7.73;84.00;99825.56;4918992;29;20660;-78
2022/11/23 06:47:37;;;;;;;9.65;7.47;;;;;;;8.08;83.92;99883.16;4919834;29;20247;-78
2022/11/23 06:50:13;;;;;;;8.98;7.00;;;;;;;8.07;84.38;99876.22;4887479;29;20055;-77
2022/11/23 06:52:42;;;;;;;9.80;6.43;;;;;;;8.17;84.45;99884.97;4900617;29;20072;-77
2022/11/23 06:55:13;;;;;;;8.50;6.63;;;;;;;7.60;83.82;99794.13;4901590;29;20166;-77
2022/11/23 06:57:58;;;;;;;8.20;5.68;;;;;;;7.95;84.50;99894.00;4892109;28;20047;-79
2022/11/23 07:00:40;;;;;;;7.28;5.78;;;;;;;7.74;85.43;99882.69;4875479;29;20953;-79
2022/11/23 07:03:22;;;;;;;7.97;5.30;;;;;;;7.83;85.94;99919.69;4903610;28;20149;-79
2022/11/23 07:06:07;;;;;;;11.45;7.15;;;;;;;7.16;87.02;99809.41;4938834;28;20358;-79
2022/11/23 07:08:42;;;;;;;6.75;5.28;;;;;;;7.84;87.23;99920.53;4937289;28;20133;-80
2022/11/23 07:11:16;;;;;;;6.53;4.75;;;;;;;7.86;87.40;99927.38;4953772;28;20058;-80
2022/11/23 07:13:47;;;;;;;8.48;6.18;;;;;;;7.91;87.37;99934.88;4938768;28;20054;-79
2022/11/23 07:16:14;;;;;;;13.32;6.43;;;;;;;8.19;87.46;99938.56;4953744;28;20153;-78
2022/11/23 07:18:41;;;;;;;11.45;6.60;;;;;;;8.36;85.91;99950.28;4937387;28;20047;-78
2022/11/23 07:21:10;;;;;;;12.00;8.82;;;;;;;8.29;85.31;99934.13;4937660;28;20051;-76
2022/11/23 07:23:39;;;;;;;9.20;7.43;;;;;;;8.50;84.91;99962.28;4937590;28;20145;-79
2022/11/23 07:26:09;;;;;;;11.73;6.63;;;;;;;8.58;84.68;99965.06;4938058;28;20133;-77
2022/11/23 07:28:36;;;;;;;7.38;6.47;;;;;;;8.53;84.95;99935.56;4957402;28;20267;-77
2022/11/23 07:31:06;;;;;;;12.05;7.72;;;;;;;8.82;83.82;99977.06;4956835;28;20422;-76
2022/11/23 07:33:38;;;;;;;13.52;8.15;;;;;;;8.88;83.44;99979.13;4985415;28;20234;-77
2022/11/23 07:36:06;;;;;;;12.27;8.23;;;;;;;8.55;83.51;99918.56;4987133;28;20517;-77
2022/11/23 07:38:34;;;;;;;11.38;8.05;;;;;;;8.58;83.80;99906.88;4945336;28;20577;-77
2022/11/23 07:41:02;;;;;;;12.27;7.90;;;;;;;7.58;84.28;99722.09;4972783;28;20440;-78
2022/11/23 07:43:40;;;;;;;10.25;7.57;;;;;;;9.19;83.85;99970.00;4964752;28;20552;-77
2022/11/23 07:46:09;;;;;;;10.73;7.30;;;;;;;8.04;82.88;99781.34;4963726;28;20051;-79
2022/11/23 07:48:37;;;;;;;12.52;8.05;;;;;;;7.96;82.65;99773.25;4984677;28;20070;-78
2022/11/23 07:51:06;;;;;;;16.98;10.40;;;;;;;9.20;83.09;99987.59;4971627;28;20057;-78
2022/11/23 07:53:35;;;;;;;24.65;8.13;;;;;;;9.27;83.05;99979.06;4930480;28;20081;-77
2022/11/23 07:56:02;;;;;;;9.70;6.72;;;;;;;9.26;83.46;99948.25;4962715;28;20717;-77
2022/11/23 07:58:45;;;;;;;10.80;6.05;;;;;;;9.49;83.06;99991.97;4951421;28;20061;-77
2022/11/23 08:01:19;;;;;;;13.90;6.07;;;;;;;9.66;83.25;99973.63;4950450;28;20096;-79
2022/11/23 08:03:51;;;;;;;7.75;4.78;;;;;;;9.75;81.59;99986.84;4949917;28;20081;-79
2022/11/23 08:06:18;;;;;;;8.23;4.25;;;;;;;9.89;82.39;99998.78;4983507;28;20060;-77
2022/11/23 08:08:46;;;;;;;17.98;5.78;;;;;;;9.87;81.62;99966.28;4972269;28;20471;-79
2022/11/23 08:11:18;;;;;;;11.73;3.88;;;;;;;9.81;81.66;99953.63;4985397;28;20485;-77
2022/11/23 08:13:49;;;;;;;10.35;5.20;;;;;;;9.04;80.79;99796.69;4988774;28;20471;-79
2022/11/23 08:16:18;;;;;;;8.68;3.72;;;;;;;10.33;80.09;99998.16;4995666;28;20052;-79
2022/11/23 08:18:49;;;;;;;8.77;3.50;;;;;;;10.51;80.81;100012.31;4999913;28;20065;-78
2022/11/23 08:21:19;;;;;;;13.50;4.38;;;;;;;9.57;79.82;99856.09;4989444;28;20563;-77
2022/11/23 08:23:49;;;;;;;8.38;6.03;;;;;;;10.19;78.04;99949.91;4987997;28;20465;-76
2022/11/23 08:26:22;;;;;;;6.82;5.15;;;;;;;10.76;79.47;100008.06;4988351;28;20584;-75
2022/11/23 08:28:50;;;;;;;8.15;3.20;;;;;;;10.83;80.44;99961.31;4987927;28;20670;-78
2022/11/23 08:31:28;;;;;;;12.93;4.03;;;;;;;11.37;78.08;100005.53;4984925;28;20045;-77
2022/11/23 08:34:12;;;;;;;28.10;5.22;;;;;;;11.77;77.67;100005.78;5005679;28;20052;-76
2022/11/23 08:36:57;;;;;;;5.05;1.80;;;;;;;11.99;75.02;100003.59;4968348;28;20426;-77
2022/11/23 08:39:37;;;;;;;16.55;4.28;;;;;;;11.57;75.21;99935.22;4968593;28;20054;-77
2022/11/23 08:42:11;;;;;;;18.27;5.13;;;;;;;12.01;76.04;99998.09;4988339;28;20050;-79
2022/11/23 08:44:45;;;;;;;3.80;2.00;;;;;;;12.16;73.27;100018.63;4985708;28;20314;-78
2022/11/23 08:47:15;;;;;;;2.83;1.92;;;;;;;12.16;74.12;100023.06;4987158;28;20060;-77
2022/11/23 08:49:45;;;;;;;18.30;3.78;;;;;;;12.39;74.72;100023.34;4999726;28;20523;-77
2022/11/23 08:52:13;;;;;;;14.55;3.10;;;;;;;12.51;74.38;100013.22;4965286;28;20045;-77
2022/11/23 08:54:44;;;;;;;9.88;2.65;;;;;;;12.63;72.94;100019.06;4969016;28;20056;-77
2022/11/23 08:57:13;;;;;;;7.20;2.00;;;;;;;12.36;72.72;99970.44;4986730;28;20677;-76
2022/11/23 08:59:50;;;;;;;23.95;4.45;;;;;;;12.71;72.32;100019.06;4966641;28;20069;-78
2022/11/23 09:02:19;;;;;;;7.15;2.08;;;;;;;12.45;72.78;99993.41;4969990;28;20489;-77
2022/11/23 09:04:52;;;;;;;28.10;4.50;;;;;;;12.71;72.63;100006.56;4966272;28;20106;-77
2022/11/23 09:07:27;;;;;;;21.02;3.60;;;;;;;12.64;72.79;100008.22;4984471;28;20062;-76
2022/11/23 09:09:56;;;;;;;10.52;2.83;;;;;;;12.57;71.51;99988.59;4980986;28;20707;-77
2022/11/23 09:12:24;;;;;;;12.57;3.03;;;;;;;12.73;72.49;99995.78;4986239;28;20135;-76
2022/11/23 09:14:52;;;;;;;24.80;3.90;;;;;;;12.80;72.29;99968.31;4985791;28;20112;-78
2022/11/23 09:17:22;;;;;;;12.23;3.75;;;;;;;13.16;70.37;100017.78;5003581;28;20216;-77
2022/11/23 09:19:54;;;;;;;29.65;4.40;;;;;;;13.21;71.65;100034.09;4986826;28;20057;-77
2022/11/23 09:22:25;;;;;;;13.15;3.45;;;;;;;13.41;71.17;100030.09;4966856;28;20057;-77
2022/11/23 09:24:54;;;;;;;10.43;2.90;;;;;;;13.27;69.53;100033.44;4963964;28;20062;-76
2022/11/23 09:27:24;;;;;;;9.13;2.45;;;;;;;13.33;68.64;100040.78;4966055;28;20362;-78
2022/11/23 09:29:52;;;;;;;5.85;1.80;;;;;;;13.13;68.82;100037.59;4965158;28;20728;-79
2022/11/23 09:32:22;;;;;;;3.03;1.98;;;;;;;13.15;70.08;100038.22;4984273;28;20060;-78
2022/11/23 09:34:49;;;;;;;6.45;1.95;;;;;;;13.11;69.86;100036.09;5005838;28;20061;-78
2022/11/23 09:37:17;;;;;;;7.05;2.22;;;;;;;12.81;71.04;99972.63;5005887;28;20165;-78
2022/11/23 09:39:47;;;;;;;2.63;1.60;;;;;;;13.25;66.45;100030.94;4981864;28;20196;-78
2022/11/23 09:43:06;;;;;;;17.85;2.80;;;;;;;13.52;67.99;100042.25;4965482;28;20578;-77
2022/11/23 09:45:51;;;;;;;13.90;2.20;;;;;;;13.55;66.32;100030.41;4959933;28;20167;-77
2022/11/23 09:48:29;;;;;;;34.10;3.90;;;;;;;13.53;66.28;100027.09;4965795;28;20513;-79
2022/11/23 09:51:19;;;;;;;20.00;3.38;;;;;;;13.24;64.99;100029.25;4963042;28;20580;-77
2022/11/23 09:54:03;;;;;;;3.58;1.77;;;;;;;13.49;67.58;100053.25;4983000;28;20059;-76
2022/11/23 09:56:40;;;;;;;3.83;1.10;;;;;;;13.43;67.39;100052.09;4984108;28;20061;-78
2022/11/23 09:59:40;;;;;;;26.90;3.08;;;;;;;13.21;67.80;100028.75;4979504;28;20049;-76
2022/11/23 10:02:22;;;;;;;27.48;3.20;;;;;;;13.64;68.79;100051.56;4921088;28;20051;-77
2022/11/23 10:04:57;;;;;;;8.77;2.17;;;;;;;13.02;66.04;99984.63;4985317;28;20069;-76
2022/11/23 10:07:35;;;;;;;13.27;2.30;;;;;;;13.62;67.45;100053.56;5001554;28;20057;-78
2022/11/23 10:10:30;;;;;;;9.50;2.15;;;;;;;12.49;65.23;99848.31;4970887;28;20053;-78
2022/11/23 10:13:39;;;;;;;8.90;2.30;;;;;;;13.50;65.26;100048.75;4965758;28;20556;-81
2022/11/23 10:16:25;;;;;;;8.52;2.08;;;;;;;13.28;65.42;99995.13;4966878;28;20204;-82
2022/11/23 10:19:33;;;;;;;6.65;1.73;;;;;;;12.59;63.45;99890.75;4966534;28;20644;-83
2022/11/23 10:22:44;;;;;;;8.27;1.73;;;;;;;13.62;64.31;100036.75;4957001;28;20108;-82
2022/11/23 10:25:20;;;;;;;1.80;1.33;;;;;;;12.51;60.95;99877.44;4965105;28;20054;-77
2022/11/23 10:27:59;;;;;;;2.65;1.50;;;;;;;13.67;63.01;100037.06;4964887;28;20382;-76
2022/11/23 10:30:26;;;;;;;8.02;1.90;;;;;;;13.47;62.18;100039.25;4964538;28;20060;-77
2022/11/23 10:33:15;;;;;;;8.07;1.98;;;;;;;13.21;62.81;99976.28;4991100;28;20048;-76
2022/11/23 10:35:47;;;;;;;2.73;1.93;;;;;;;13.20;60.11;99984.44;4991508;28;20135;-77
2022/11/23 10:38:16;;;;;;;5.53;2.35;;;;;;;13.39;61.27;100000.09;4989374;28;20064;-79
2022/11/23 10:41:10;;;;;;;4.20;1.77;;;;;;;13.44;60.04;100005.75;5000804;28;20077;-79
2022/11/23 10:44:03;;;;;;;5.40;1.67;;;;;;;12.44;60.36;99841.84;5004759;28;20045;-78
2022/11/23 10:46:39;;;;;;;4.30;2.33;;;;;;;13.66;59.32;100022.03;5001476;28;20064;-77
2022/11/23 10:49:18;;;;;;;4.05;2.03;;;;;;;13.77;60.16;100029.69;4987192;28;20459;-77
2022/11/23 10:52:02;;;;;;;3.53;2.10;;;;;;;13.30;58.55;99944.28;4983972;28;20055;-76
2022/11/23 10:54:33;;;;;;;5.43;2.78;;;;;;;13.44;57.79;99976.41;4984073;28;20159;-77
2022/11/23 10:57:29;;;;;;;8.57;2.20;;;;;;;13.87;58.93;100034.84;4999811;28;20064;-77
2022/11/23 11:00:08;;;;;;;1.73;1.63;;;;;;;13.93;61.21;100041.31;4963240;28;20525;-76
2022/11/23 11:02:44;;;;;;;4.05;1.83;;;;;;;13.52;61.60;99988.94;4963187;28;20192;-77
2022/11/23 11:05:37;;;;;;;4.40;2.08;;;;;;;13.75;58.15;100037.03;4956844;28;20063;-76
2022/11/23 11:08:36;;;;;;;5.90;2.20;;;;;;;13.74;57.64;100039.84;4948018;28;21087;-76
2022/11/23 11:11:08;;;;;;;8.13;2.63;;;;;;;13.59;58.05;100053.06;4962940;28;20581;-76
2022/11/23 11:13:45;;;;;;;;;;;;;;;13.50;56.95;100046.09;4897934;28;20557;-78
2022/11/23 11:16:36;;;;;;;10.73;2.60;;;;;;;13.38;61.59;100043.75;4942630;28;19930;-76
2022/11/23 11:19:29;;;;;;;5.97;3.10;;;;;;;13.37;62.29;100038.59;4961055;28;20502;-76
2022/11/23 11:22:24;;;;;;;4.35;3.00;;;;;;;13.01;61.72;99983.78;4949974;28;20105;-78
2022/11/23 11:24:53;;;;;;;6.95;2.90;;;;;;;13.19;63.67;100004.09;4944346;28;20644;-77
2022/11/23 11:27:22;;;;;;;4.97;2.97;;;;;;;13.25;62.13;100025.59;4946146;28;20169;-77
2022/11/23 11:30:16;;;;;;;7.30;2.60;;;;;;;12.25;62.36;99862.44;4931268;28;20046;-77
2022/11/23 11:33:20;;;;;;;2.95;2.50;;;;;;;13.23;58.44;100016.09;4956728;28;20074;-77
2022/11/23 11:35:54;;;;;;;4.68;2.20;;;;;;;13.27;62.16;100030.78;4972110;28;20141;-76
2022/11/23 11:38:46;;;;;;;4.60;3.00;;;;;;;12.99;59.78;99977.78;4948447;28;20054;-78
2022/11/23 11:41:43;;;;;;;4.53;2.38;;;;;;;13.18;59.86;100026.41;4944424;28;20336;-77
2022/11/23 11:44:25;;;;;;;4.03;2.42;;;;;;;12.78;57.92;99950.81;4943611;28;20051;-77
2022/11/23 11:46:59;;;;;;;;;;;;;;;13.14;59.29;100027.75;4943849;28;20181;-79
2022/11/23 11:49:35;;;;;;;2.72;2.20;;;;;;;13.05;61.67;100025.06;4943851;28;19926;-78
2022/11/23 11:52:09;;;;;;;12.88;2.90;;;;;;;11.87;60.16;99837.28;4945440;28;20524;-77
2022/11/23 11:55:13;;;;;;;2.92;2.00;;;;;;;13.05;59.19;100019.75;4945578;28;20284;-78
2022/11/23 11:57:54;;;;;;;7.35;2.70;;;;;;;13.05;61.40;100021.59;4946619;28;20062;-77
2022/11/23 12:00:25;;;;;;;4.35;2.65;;;;;;;12.55;60.52;99932.84;4962584;28;20104;-77
2022/11/23 12:03:22;;;;;;;3.90;3.10;;;;;;;13.00;57.09;100011.44;4963728;28;20046;-76
2022/11/23 12:06:00;;;;;;;5.57;2.78;;;;;;;12.56;57.78;99958.47;4965077;28;20120;-77
2022/11/23 12:09:05;;;;;;;4.65;2.45;;;;;;;12.92;56.89;100016.75;4966288;28;20343;-79
2022/11/23 12:11:36;;;;;;;3.28;2.53;;;;;;;12.57;63.79;99935.31;4965346;28;20138;-77
2022/11/23 12:14:05;;;;;;;7.68;2.92;;;;;;;13.05;62.44;100000.28;4948246;28;20046;-76
2022/11/23 12:17:01;;;;;;;11.43;3.22;;;;;;;12.61;59.14;99937.50;4965337;28;20189;-77
2022/11/23 12:20:16;;;;;;;5.90;2.67;;;;;;;12.60;58.94;99941.19;4962556;28;20054;-77
2022/11/23 12:23:12;;;;;;;7.82;2.50;;;;;;;13.01;55.35;99999.78;4963491;28;20532;-79
2022/11/23 12:25:57;;;;;;;7.03;2.80;;;;;;;13.02;61.87;99956.13;4964815;28;20204;-77